sensor_id;sensor_type;location;lat;lon;timestamp;temperature;humidity
20866;DHT22;10593;48.398;10.698;2023-04-01T00:01:03;12.60;51.00
20866;DHT22;10593;48.398;10.698;2023-04-01T00:03:29;12.60;51.20
20866;DHT22;10593;48.398;10.698;2023-04-01T00:05:57;12.60;51.20
20866;DHT22;10593;48.398;10.698;2023-04-01T00:08:25;12.60;51.20
20866;DHT22;10593;48.398;10.698;2023-04-01T00:10:52;12.60;51.40
20866;DHT22;10593;48.398;10.698;2023-04-01T00:13:18;12.60;51.30
20866;DHT22;10593;48.398;10.698;2023-04-01T00:15:44;12.60;51.30
20866;DHT22;10593;48.398;10.698;2023-04-01T00:18:11;12.60;51.30
20866;DHT22;10593;48.398;10.698;2023-04-01T00:20:37;12.60;51.30
20866;DHT22;10593;48.398;10.698;2023-04-01T00:23:03;12.60;51.40
20866;DHT22;10593;48.398;10.698;2023-04-01T00:25:30;12.60;51.40
20866;DHT22;10593;48.398;10.698;2023-04-01T00:27:56;12.60;51.40
20866;DHT22;10593;48.398;10.698;2023-04-01T00:30:22;12.50;51.30
20866;DHT22;10593;48.398;10.698;2023-04-01T00:32:51;12.50;51.30
20866;DHT22;10593;48.398;10.698;2023-04-01T00:35:17;12.60;51.40
20866;DHT22;10593;48.398;10.698;2023-04-01T00:37:43;12.50;51.40
20866;DHT22;10593;48.398;10.698;2023-04-01T00:40:29;12.50;51.40
20866;DHT22;10593;48.398;10.698;2023-04-01T00:43:00;12.50;51.50
20866;DHT22;10593;48.398;10.698;2023-04-01T00:45:35;12.50;51.50
20866;DHT22;10593;48.398;10.698;2023-04-01T00:50:35;12.50;51.60
20866;DHT22;10593;48.398;10.698;2023-04-01T00:53:05;12.50;51.50
20866;DHT22;10593;48.398;10.698;2023-04-01T00:55:35;12.50;51.40
20866;DHT22;10593;48.398;10.698;2023-04-01T00:58:05;12.50;51.50
20866;DHT22;10593;48.398;10.698;2023-04-01T01:00:34;12.50;51.50
20866;DHT22;10593;48.398;10.698;2023-04-01T01:03:01;12.50;51.50
20866;DHT22;10593;48.398;10.698;2023-04-01T01:06:00;12.50;51.50
20866;DHT22;10593;48.398;10.698;2023-04-01T01:11:39;12.40;51.30
20866;DHT22;10593;48.398;10.698;2023-04-01T01:14:25;12.40;51.30
20866;DHT22;10593;48.398;10.698;2023-04-01T01:17:31;12.40;51.40
20866;DHT22;10593;48.398;10.698;2023-04-01T01:20:40;12.40;51.40
20866;DHT22;10593;48.398;10.698;2023-04-01T01:23:23;12.40;51.40
20866;DHT22;10593;48.398;10.698;2023-04-01T01:26:30;12.40;51.50
20866;DHT22;10593;48.398;10.698;2023-04-01T01:29:48;12.40;51.50
20866;DHT22;10593;48.398;10.698;2023-04-01T01:31:50;12.40;51.50
20866;DHT22;10593;48.398;10.698;2023-04-01T01:34:52;12.40;51.60
20866;DHT22;10593;48.398;10.698;2023-04-01T01:37:41;12.40;51.60
20866;DHT22;10593;48.398;10.698;2023-04-01T01:40:10;12.30;51.40
20866;DHT22;10593;48.398;10.698;2023-04-01T01:42:39;12.30;51.50
20866;DHT22;10593;48.398;10.698;2023-04-01T01:45:10;12.30;51.50
20866;DHT22;10593;48.398;10.698;2023-04-01T01:47:38;12.30;52.10
20866;DHT22;10593;48.398;10.698;2023-04-01T01:50:07;12.30;51.60
20866;DHT22;10593;48.398;10.698;2023-04-01T01:52:34;12.30;51.60
20866;DHT22;10593;48.398;10.698;2023-04-01T01:55:00;12.30;51.60
20866;DHT22;10593;48.398;10.698;2023-04-01T01:57:29;12.30;51.60
20866;DHT22;10593;48.398;10.698;2023-04-01T02:00:09;12.30;51.60
20866;DHT22;10593;48.398;10.698;2023-04-01T02:02:41;12.30;51.60
20866;DHT22;10593;48.398;10.698;2023-04-01T02:05:11;12.20;51.50
20866;DHT22;10593;48.398;10.698;2023-04-01T02:07:46;12.30;51.60
20866;DHT22;10593;48.398;10.698;2023-04-01T02:10:19;12.20;51.60
20866;DHT22;10593;48.398;10.698;2023-04-01T02:12:48;12.20;51.60
20866;DHT22;10593;48.398;10.698;2023-04-01T02:15:16;12.20;51.60
20866;DHT22;10593;48.398;10.698;2023-04-01T02:17:44;12.20;51.60
20866;DHT22;10593;48.398;10.698;2023-04-01T02:20:20;12.20;51.60
20866;DHT22;10593;48.398;10.698;2023-04-01T02:22:50;12.20;51.60
20866;DHT22;10593;48.398;10.698;2023-04-01T02:25:22;12.20;51.60
20866;DHT22;10593;48.398;10.698;2023-04-01T02:27:50;12.20;51.60
20866;DHT22;10593;48.398;10.698;2023-04-01T02:30:17;12.10;51.50
20866;DHT22;10593;48.398;10.698;2023-04-01T02:32:45;12.20;51.60
20866;DHT22;10593;48.398;10.698;2023-04-01T02:35:13;12.10;51.60
20866;DHT22;10593;48.398;10.698;2023-04-01T02:37:42;12.10;51.60
20866;DHT22;10593;48.398;10.698;2023-04-01T02:40:12;12.10;51.60
20866;DHT22;10593;48.398;10.698;2023-04-01T02:42:39;12.10;51.60
20866;DHT22;10593;48.398;10.698;2023-04-01T02:45:05;12.10;51.60
20866;DHT22;10593;48.398;10.698;2023-04-01T02:47:31;12.10;51.60
20866;DHT22;10593;48.398;10.698;2023-04-01T02:49:57;12.10;51.60
20866;DHT22;10593;48.398;10.698;2023-04-01T02:52:30;12.00;51.50
20866;DHT22;10593;48.398;10.698;2023-04-01T02:54:57;12.00;51.60
20866;DHT22;10593;48.398;10.698;2023-04-01T02:57:23;12.00;51.60
20866;DHT22;10593;48.398;10.698;2023-04-01T02:59:49;12.00;51.50
20866;DHT22;10593;48.398;10.698;2023-04-01T03:02:16;12.00;51.40
20866;DHT22;10593;48.398;10.698;2023-04-01T03:04:42;12.00;51.40
20866;DHT22;10593;48.398;10.698;2023-04-01T03:07:08;12.00;51.40
20866;DHT22;10593;48.398;10.698;2023-04-01T03:09:36;11.90;51.40
20866;DHT22;10593;48.398;10.698;2023-04-01T03:12:02;12.00;51.40
20866;DHT22;10593;48.398;10.698;2023-04-01T03:14:28;11.90;51.40
20866;DHT22;10593;48.398;10.698;2023-04-01T03:16:54;11.90;51.40
20866;DHT22;10593;48.398;10.698;2023-04-01T03:19:20;11.90;51.40
20866;DHT22;10593;48.398;10.698;2023-04-01T03:21:45;11.90;51.50
20866;DHT22;10593;48.398;10.698;2023-04-01T03:24:11;11.90;51.40
20866;DHT22;10593;48.398;10.698;2023-04-01T03:26:37;11.90;51.50
20866;DHT22;10593;48.398;10.698;2023-04-01T03:29:02;11.90;51.50
20866;DHT22;10593;48.398;10.698;2023-04-01T03:31:28;11.90;51.40
20866;DHT22;10593;48.398;10.698;2023-04-01T03:33:53;11.90;52.10
20866;DHT22;10593;48.398;10.698;2023-04-01T03:36:19;11.90;51.50
20866;DHT22;10593;48.398;10.698;2023-04-01T03:38:45;11.90;51.40
20866;DHT22;10593;48.398;10.698;2023-04-01T03:41:13;11.90;51.40
20866;DHT22;10593;48.398;10.698;2023-04-01T03:43:40;11.90;51.40
20866;DHT22;10593;48.398;10.698;2023-04-01T03:46:06;11.90;51.50
20866;DHT22;10593;48.398;10.698;2023-04-01T03:48:31;11.90;51.50
20866;DHT22;10593;48.398;10.698;2023-04-01T03:50:57;11.90;51.50
20866;DHT22;10593;48.398;10.698;2023-04-01T03:53:23;11.80;51.40
20866;DHT22;10593;48.398;10.698;2023-04-01T03:55:49;11.80;51.40
20866;DHT22;10593;48.398;10.698;2023-04-01T03:58:16;11.80;51.50
20866;DHT22;10593;48.398;10.698;2023-04-01T04:00:43;11.80;51.60
20866;DHT22;10593;48.398;10.698;2023-04-01T04:03:08;11.80;51.60
20866;DHT22;10593;48.398;10.698;2023-04-01T04:05:34;11.80;51.60
20866;DHT22;10593;48.398;10.698;2023-04-01T04:08:00;11.80;51.60
20866;DHT22;10593;48.398;10.698;2023-04-01T04:10:26;11.80;51.60
20866;DHT22;10593;48.398;10.698;2023-04-01T04:12:52;11.80;51.70
20866;DHT22;10593;48.398;10.698;2023-04-01T04:15:18;11.80;51.80
20866;DHT22;10593;48.398;10.698;2023-04-01T04:17:45;11.80;51.90
20866;DHT22;10593;48.398;10.698;2023-04-01T04:20:11;11.80;52.00
20866;DHT22;10593;48.398;10.698;2023-04-01T04:22:36;11.80;52.20
20866;DHT22;10593;48.398;10.698;2023-04-01T04:25:02;11.80;52.40
20866;DHT22;10593;48.398;10.698;2023-04-01T04:27:28;11.80;52.60
20866;DHT22;10593;48.398;10.698;2023-04-01T04:29:54;11.80;52.70
20866;DHT22;10593;48.398;10.698;2023-04-01T04:32:19;11.70;52.60
20866;DHT22;10593;48.398;10.698;2023-04-01T04:34:45;11.70;52.60
20866;DHT22;10593;48.398;10.698;2023-04-01T04:37:11;11.70;52.70
20866;DHT22;10593;48.398;10.698;2023-04-01T04:39:36;11.70;52.80
20866;DHT22;10593;48.398;10.698;2023-04-01T04:42:02;11.70;52.90
20866;DHT22;10593;48.398;10.698;2023-04-01T04:44:28;11.70;52.90
20866;DHT22;10593;48.398;10.698;2023-04-01T04:46:53;11.70;53.00
20866;DHT22;10593;48.398;10.698;2023-04-01T04:49:19;11.70;53.10
20866;DHT22;10593;48.398;10.698;2023-04-01T04:51:45;11.70;53.20
20866;DHT22;10593;48.398;10.698;2023-04-01T04:54:10;11.70;53.20
20866;DHT22;10593;48.398;10.698;2023-04-01T04:56:36;11.70;53.20
20866;DHT22;10593;48.398;10.698;2023-04-01T04:59:02;11.70;53.30
20866;DHT22;10593;48.398;10.698;2023-04-01T05:01:27;11.70;53.30
20866;DHT22;10593;48.398;10.698;2023-04-01T05:03:53;11.70;53.30
20866;DHT22;10593;48.398;10.698;2023-04-01T05:06:19;11.60;53.20
20866;DHT22;10593;48.398;10.698;2023-04-01T05:08:46;11.60;53.20
20866;DHT22;10593;48.398;10.698;2023-04-01T05:11:15;11.60;53.20
20866;DHT22;10593;48.398;10.698;2023-04-01T05:13:42;11.60;53.30
20866;DHT22;10593;48.398;10.698;2023-04-01T05:16:11;11.60;53.20
20866;DHT22;10593;48.398;10.698;2023-04-01T05:18:38;11.60;53.20
20866;DHT22;10593;48.398;10.698;2023-04-01T05:21:06;11.60;53.20
20866;DHT22;10593;48.398;10.698;2023-04-01T05:23:32;11.60;53.20
20866;DHT22;10593;48.398;10.698;2023-04-01T05:26:02;11.60;53.20
20866;DHT22;10593;48.398;10.698;2023-04-01T05:28:32;11.60;53.20
20866;DHT22;10593;48.398;10.698;2023-04-01T05:31:01;11.60;53.30
20866;DHT22;10593;48.398;10.698;2023-04-01T05:33:29;11.60;53.30
20866;DHT22;10593;48.398;10.698;2023-04-01T05:35:55;11.60;53.30
20866;DHT22;10593;48.398;10.698;2023-04-01T05:38:21;11.60;53.30
20866;DHT22;10593;48.398;10.698;2023-04-01T05:40:47;11.60;53.30
20866;DHT22;10593;48.398;10.698;2023-04-01T05:43:13;11.60;53.20
20866;DHT22;10593;48.398;10.698;2023-04-01T05:45:38;11.60;53.20
20866;DHT22;10593;48.398;10.698;2023-04-01T05:48:04;11.60;53.20
20866;DHT22;10593;48.398;10.698;2023-04-01T05:50:30;11.60;53.20
20866;DHT22;10593;48.398;10.698;2023-04-01T05:52:56;11.60;53.20
20866;DHT22;10593;48.398;10.698;2023-04-01T05:55:22;11.60;53.20
20866;DHT22;10593;48.398;10.698;2023-04-01T05:57:47;11.60;53.10
20866;DHT22;10593;48.398;10.698;2023-04-01T06:00:15;11.70;53.30
20866;DHT22;10593;48.398;10.698;2023-04-01T06:02:42;11.70;53.30
20866;DHT22;10593;48.398;10.698;2023-04-01T06:05:19;11.70;53.30
20866;DHT22;10593;48.398;10.698;2023-04-01T06:07:59;11.70;53.30
20866;DHT22;10593;48.398;10.698;2023-04-01T06:10:45;11.70;53.30
20866;DHT22;10593;48.398;10.698;2023-04-01T06:16:20;11.80;53.30
20866;DHT22;10593;48.398;10.698;2023-04-01T06:19:15;11.80;53.20
20866;DHT22;10593;48.398;10.698;2023-04-01T06:30:53;11.80;53.20
20866;DHT22;10593;48.398;10.698;2023-04-01T06:33:35;11.80;53.10
20866;DHT22;10593;48.398;10.698;2023-04-01T06:36:42;11.80;53.00
20866;DHT22;10593;48.398;10.698;2023-04-01T06:39:48;11.90;53.00
20866;DHT22;10593;48.398;10.698;2023-04-01T06:42:47;11.90;53.20
20866;DHT22;10593;48.398;10.698;2023-04-01T06:51:47;12.20;54.00
20866;DHT22;10593;48.398;10.698;2023-04-01T06:54:36;12.30;53.90
20866;DHT22;10593;48.398;10.698;2023-04-01T06:57:25;12.40;54.10
20866;DHT22;10593;48.398;10.698;2023-04-01T06:59:59;12.60;53.40
20866;DHT22;10593;48.398;10.698;2023-04-01T07:02:39;12.70;53.40
20866;DHT22;10593;48.398;10.698;2023-04-01T07:05:11;12.70;52.80
20866;DHT22;10593;48.398;10.698;2023-04-01T07:07:42;12.80;52.80
20866;DHT22;10593;48.398;10.698;2023-04-01T07:10:23;12.80;52.60
20866;DHT22;10593;48.398;10.698;2023-04-01T07:13:01;12.80;52.40
20866;DHT22;10593;48.398;10.698;2023-04-01T07:15:36;12.90;52.20
20866;DHT22;10593;48.398;10.698;2023-04-01T07:18:15;12.90;52.00
20866;DHT22;10593;48.398;10.698;2023-04-01T07:20:44;12.90;52.00
20866;DHT22;10593;48.398;10.698;2023-04-01T07:23:23;12.90;52.00
20866;DHT22;10593;48.398;10.698;2023-04-01T07:25:58;12.90;51.80
20866;DHT22;10593;48.398;10.698;2023-04-01T07:28:31;12.90;51.70
20866;DHT22;10593;48.398;10.698;2023-04-01T07:31:19;12.90;51.60
20866;DHT22;10593;48.398;10.698;2023-04-01T07:34:19;12.80;51.30
20866;DHT22;10593;48.398;10.698;2023-04-01T07:40:23;12.80;51.00
20866;DHT22;10593;48.398;10.698;2023-04-01T07:49:16;12.70;51.10
20866;DHT22;10593;48.398;10.698;2023-04-01T07:54:49;12.70;51.10
20866;DHT22;10593;48.398;10.698;2023-04-01T08:00:27;12.60;51.20
20866;DHT22;10593;48.398;10.698;2023-04-01T08:03:28;12.60;51.20
20866;DHT22;10593;48.398;10.698;2023-04-01T08:06:28;12.60;51.20
20866;DHT22;10593;48.398;10.698;2023-04-01T08:12:04;12.60;51.40
20866;DHT22;10593;48.398;10.698;2023-04-01T08:14:48;12.60;51.40
20866;DHT22;10593;48.398;10.698;2023-04-01T08:20:36;12.60;51.40
20866;DHT22;10593;48.398;10.698;2023-04-01T08:23:36;12.50;51.50
20866;DHT22;10593;48.398;10.698;2023-04-01T08:31:59;12.60;51.40
20866;DHT22;10593;48.398;10.698;2023-04-01T08:34:43;12.60;51.40
20866;DHT22;10593;48.398;10.698;2023-04-01T08:37:17;12.60;51.40
20866;DHT22;10593;48.398;10.698;2023-04-01T08:39:52;12.60;51.90
20866;DHT22;10593;48.398;10.698;2023-04-01T08:45:21;12.70;51.30
20866;DHT22;10593;48.398;10.698;2023-04-01T08:59:47;12.70;50.90
20866;DHT22;10593;48.398;10.698;2023-04-01T09:02:39;12.70;51.00
20866;DHT22;10593;48.398;10.698;2023-04-01T09:27:17;12.70;50.80
20866;DHT22;10593;48.398;10.698;2023-04-01T09:30:17;12.80;50.90
20866;DHT22;10593;48.398;10.698;2023-04-01T09:33:16;12.80;50.90
20866;DHT22;10593;48.398;10.698;2023-04-01T09:44:35;12.80;51.60
20866;DHT22;10593;48.398;10.698;2023-04-01T09:50:42;12.90;52.10
20866;DHT22;10593;48.398;10.698;2023-04-01T09:53:28;12.90;52.40
20866;DHT22;10593;48.398;10.698;2023-04-01T10:02:33;13.00;52.80
20866;DHT22;10593;48.398;10.698;2023-04-01T10:08:11;13.00;53.30
20866;DHT22;10593;48.398;10.698;2023-04-01T10:14:33;13.00;53.70
20866;DHT22;10593;48.398;10.698;2023-04-01T10:17:28;13.00;53.40
20866;DHT22;10593;48.398;10.698;2023-04-01T10:29:30;13.00;53.70
20866;DHT22;10593;48.398;10.698;2023-04-01T10:36:13;13.00;53.70
20866;DHT22;10593;48.398;10.698;2023-04-01T10:55:15;12.80;54.30
20866;DHT22;10593;48.398;10.698;2023-04-01T11:01:43;12.70;54.60
20866;DHT22;10593;48.398;10.698;2023-04-01T11:11:44;12.70;54.90
20866;DHT22;10593;48.398;10.698;2023-04-01T11:20:27;12.70;55.40
20866;DHT22;10593;48.398;10.698;2023-04-01T11:44:14;12.60;55.30
20866;DHT22;10593;48.398;10.698;2023-04-01T11:58:23;12.60;55.70
20866;DHT22;10593;48.398;10.698;2023-04-01T12:04:45;12.60;56.10
20866;DHT22;10593;48.398;10.698;2023-04-01T12:13:36;12.60;56.00
20866;DHT22;10593;48.398;10.698;2023-04-01T12:19:00;12.70;56.40
20866;DHT22;10593;48.398;10.698;2023-04-01T12:30:16;12.70;56.70
20866;DHT22;10593;48.398;10.698;2023-04-01T12:33:18;12.70;56.80
20866;DHT22;10593;48.398;10.698;2023-04-01T12:39:20;12.70;56.80
20866;DHT22;10593;48.398;10.698;2023-04-01T12:45:27;12.70;56.80
20866;DHT22;10593;48.398;10.698;2023-04-01T12:57:30;12.70;57.70
20866;DHT22;10593;48.398;10.698;2023-04-01T13:06:47;12.70;57.50
20866;DHT22;10593;48.398;10.698;2023-04-01T13:12:29;12.80;57.70
20866;DHT22;10593;48.398;10.698;2023-04-01T13:15:12;12.80;57.60
20866;DHT22;10593;48.398;10.698;2023-04-01T13:18:02;12.80;57.70
20866;DHT22;10593;48.398;10.698;2023-04-01T13:21:04;12.80;57.40
20866;DHT22;10593;48.398;10.698;2023-04-01T13:24:01;12.80;57.40
20866;DHT22;10593;48.398;10.698;2023-04-01T13:27:16;12.90;57.30
20866;DHT22;10593;48.398;10.698;2023-04-01T13:33:01;12.90;57.00
20866;DHT22;10593;48.398;10.698;2023-04-01T13:41:40;12.90;57.00
20866;DHT22;10593;48.398;10.698;2023-04-01T13:44:59;12.90;57.00
20866;DHT22;10593;48.398;10.698;2023-04-01T13:47:24;12.90;57.00
20866;DHT22;10593;48.398;10.698;2023-04-01T13:56:19;12.90;56.60
20866;DHT22;10593;48.398;10.698;2023-04-01T13:59:19;13.00;56.60
20866;DHT22;10593;48.398;10.698;2023-04-01T14:06:16;13.00;56.60
20866;DHT22;10593;48.398;10.698;2023-04-01T14:12:46;13.00;57.00
20866;DHT22;10593;48.398;10.698;2023-04-01T14:21:44;13.00;57.00
20866;DHT22;10593;48.398;10.698;2023-04-01T14:24:43;13.00;56.80
20866;DHT22;10593;48.398;10.698;2023-04-01T14:30:45;13.00;57.00
20866;DHT22;10593;48.398;10.698;2023-04-01T14:36:28;13.00;57.00
20866;DHT22;10593;48.398;10.698;2023-04-01T14:39:50;13.00;57.00
20866;DHT22;10593;48.398;10.698;2023-04-01T14:51:10;13.10;57.10
20866;DHT22;10593;48.398;10.698;2023-04-01T14:53:51;13.10;57.20
20866;DHT22;10593;48.398;10.698;2023-04-01T14:56:50;13.10;57.10
20866;DHT22;10593;48.398;10.698;2023-04-01T15:04:38;13.20;57.10
20866;DHT22;10593;48.398;10.698;2023-04-01T15:07:11;13.20;56.80
20866;DHT22;10593;48.398;10.698;2023-04-01T15:15:29;13.20;56.20
20866;DHT22;10593;48.398;10.698;2023-04-01T15:24:24;13.20;55.60
20866;DHT22;10593;48.398;10.698;2023-04-01T15:27:25;13.20;55.30
20866;DHT22;10593;48.398;10.698;2023-04-01T15:32:52;13.20;55.10
20866;DHT22;10593;48.398;10.698;2023-04-01T15:38:21;13.20;55.00
20866;DHT22;10593;48.398;10.698;2023-04-01T15:41:55;13.20;55.20
20866;DHT22;10593;48.398;10.698;2023-04-01T15:44:48;13.20;54.80
20866;DHT22;10593;48.398;10.698;2023-04-01T15:48:20;13.20;54.90
20866;DHT22;10593;48.398;10.698;2023-04-01T15:50:49;13.20;54.90
20866;DHT22;10593;48.398;10.698;2023-04-01T15:56:42;13.30;54.80
20866;DHT22;10593;48.398;10.698;2023-04-01T15:59:49;13.30;54.50
20866;DHT22;10593;48.398;10.698;2023-04-01T16:03:03;13.30;54.10
20866;DHT22;10593;48.398;10.698;2023-04-01T16:12:07;13.30;54.10
20866;DHT22;10593;48.398;10.698;2023-04-01T16:18:40;13.30;53.80
20866;DHT22;10593;48.398;10.698;2023-04-01T16:21:24;13.30;53.70
20866;DHT22;10593;48.398;10.698;2023-04-01T16:24:13;13.30;53.80
20866;DHT22;10593;48.398;10.698;2023-04-01T16:29:51;13.20;53.60
20866;DHT22;10593;48.398;10.698;2023-04-01T16:32:43;13.20;53.50
20866;DHT22;10593;48.398;10.698;2023-04-01T16:38:32;13.20;53.30
20866;DHT22;10593;48.398;10.698;2023-04-01T16:43:59;13.20;53.40
20866;DHT22;10593;48.398;10.698;2023-04-01T16:46:44;13.20;53.50
20866;DHT22;10593;48.398;10.698;2023-04-01T16:49:41;13.20;53.40
20866;DHT22;10593;48.398;10.698;2023-04-01T16:52:16;13.20;53.30
20866;DHT22;10593;48.398;10.698;2023-04-01T16:55:18;13.20;53.30
20866;DHT22;10593;48.398;10.698;2023-04-01T16:57:52;13.20;53.30
20866;DHT22;10593;48.398;10.698;2023-04-01T17:05:44;13.10;53.10
20866;DHT22;10593;48.398;10.698;2023-04-01T17:08:32;13.10;53.10
20866;DHT22;10593;48.398;10.698;2023-04-01T17:14:44;13.10;53.10
20866;DHT22;10593;48.398;10.698;2023-04-01T17:20:26;13.10;53.20
20866;DHT22;10593;48.398;10.698;2023-04-01T17:31:41;13.10;53.40
20866;DHT22;10593;48.398;10.698;2023-04-01T17:34:20;13.10;53.60
20866;DHT22;10593;48.398;10.698;2023-04-01T17:37:16;13.10;53.70
20866;DHT22;10593;48.398;10.698;2023-04-01T17:43:01;13.00;53.70
20866;DHT22;10593;48.398;10.698;2023-04-01T17:45:48;13.00;53.70
20866;DHT22;10593;48.398;10.698;2023-04-01T17:48:38;13.00;53.80
20866;DHT22;10593;48.398;10.698;2023-04-01T18:01:13;13.00;53.90
20866;DHT22;10593;48.398;10.698;2023-04-01T18:06:34;13.00;53.80
20866;DHT22;10593;48.398;10.698;2023-04-01T18:12:11;12.90;54.20
20866;DHT22;10593;48.398;10.698;2023-04-01T18:15:08;12.90;53.70
20866;DHT22;10593;48.398;10.698;2023-04-01T18:18:10;12.90;53.70
20866;DHT22;10593;48.398;10.698;2023-04-01T18:20:53;12.90;53.70
20866;DHT22;10593;48.398;10.698;2023-04-01T18:23:46;12.80;53.60
20866;DHT22;10593;48.398;10.698;2023-04-01T18:26:35;12.90;53.70
20866;DHT22;10593;48.398;10.698;2023-04-01T18:31:55;12.80;53.60
20866;DHT22;10593;48.398;10.698;2023-04-01T18:35:02;12.80;53.60
20866;DHT22;10593;48.398;10.698;2023-04-01T18:46:19;12.80;53.40
20866;DHT22;10593;48.398;10.698;2023-04-01T18:52:26;12.80;53.50
20866;DHT22;10593;48.398;10.698;2023-04-01T19:00:37;12.80;53.30
20866;DHT22;10593;48.398;10.698;2023-04-01T19:03:26;12.80;53.10
20866;DHT22;10593;48.398;10.698;2023-04-01T19:06:07;12.80;53.10
20866;DHT22;10593;48.398;10.698;2023-04-01T19:08:41;12.70;53.10
20866;DHT22;10593;48.398;10.698;2023-04-01T19:20:03;12.70;53.00
20866;DHT22;10593;48.398;10.698;2023-04-01T19:25:34;12.70;52.90
20866;DHT22;10593;48.398;10.698;2023-04-01T19:28:20;12.60;52.90
20866;DHT22;10593;48.398;10.698;2023-04-01T19:34:20;12.60;52.90
20866;DHT22;10593;48.398;10.698;2023-04-01T19:36:58;12.60;53.00
20866;DHT22;10593;48.398;10.698;2023-04-01T19:48:51;12.60;53.00
20866;DHT22;10593;48.398;10.698;2023-04-01T19:57:27;12.50;52.90
20866;DHT22;10593;48.398;10.698;2023-04-01T20:00:22;12.50;52.90
20866;DHT22;10593;48.398;10.698;2023-04-01T20:03:05;12.50;52.90
20866;DHT22;10593;48.398;10.698;2023-04-01T20:05:48;12.50;52.90
20866;DHT22;10593;48.398;10.698;2023-04-01T20:17:22;12.50;52.90
20866;DHT22;10593;48.398;10.698;2023-04-01T20:20:15;12.50;53.00
20866;DHT22;10593;48.398;10.698;2023-04-01T20:25:23;12.40;52.80
20866;DHT22;10593;48.398;10.698;2023-04-01T20:31:12;12.40;52.90
20866;DHT22;10593;48.398;10.698;2023-04-01T20:34:17;12.40;52.90
20866;DHT22;10593;48.398;10.698;2023-04-01T20:37:15;12.40;52.80
20866;DHT22;10593;48.398;10.698;2023-04-01T20:43:14;12.40;52.90
20866;DHT22;10593;48.398;10.698;2023-04-01T20:46:51;12.30;52.80
20866;DHT22;10593;48.398;10.698;2023-04-01T20:54:59;12.30;52.80
20866;DHT22;10593;48.398;10.698;2023-04-01T20:57:52;12.30;52.90
20866;DHT22;10593;48.398;10.698;2023-04-01T21:03:30;12.30;52.90
20866;DHT22;10593;48.398;10.698;2023-04-01T21:06:20;12.30;53.10
20866;DHT22;10593;48.398;10.698;2023-04-01T21:09:15;12.30;53.10
20866;DHT22;10593;48.398;10.698;2023-04-01T21:12:20;12.30;53.10
20866;DHT22;10593;48.398;10.698;2023-04-01T21:15:10;12.20;53.10
20866;DHT22;10593;48.398;10.698;2023-04-01T21:19:08;12.20;53.10
20866;DHT22;10593;48.398;10.698;2023-04-01T21:21:23;12.20;53.10
20866;DHT22;10593;48.398;10.698;2023-04-01T21:32:52;12.20;53.10
20866;DHT22;10593;48.398;10.698;2023-04-01T21:38:35;12.20;53.10
20866;DHT22;10593;48.398;10.698;2023-04-01T21:44:29;12.10;53.00
20866;DHT22;10593;48.398;10.698;2023-04-01T21:59:45;12.10;53.00
20866;DHT22;10593;48.398;10.698;2023-04-01T22:02:51;12.00;52.90
20866;DHT22;10593;48.398;10.698;2023-04-01T22:12:01;12.00;53.00
20866;DHT22;10593;48.398;10.698;2023-04-01T22:14:38;12.00;53.10
20866;DHT22;10593;48.398;10.698;2023-04-01T22:17:17;11.90;53.00
20866;DHT22;10593;48.398;10.698;2023-04-01T22:20:22;11.90;53.00
20866;DHT22;10593;48.398;10.698;2023-04-01T22:25:40;11.90;53.20
20866;DHT22;10593;48.398;10.698;2023-04-01T22:28:21;11.90;53.70
20866;DHT22;10593;48.398;10.698;2023-04-01T22:30:58;11.90;53.20
20866;DHT22;10593;48.398;10.698;2023-04-01T22:36:26;11.90;53.20
20866;DHT22;10593;48.398;10.698;2023-04-01T22:43:03;11.80;53.10
20866;DHT22;10593;48.398;10.698;2023-04-01T22:45:37;11.80;53.10
20866;DHT22;10593;48.398;10.698;2023-04-01T22:48:32;11.80;53.20
20866;DHT22;10593;48.398;10.698;2023-04-01T22:51:18;11.80;53.20
20866;DHT22;10593;48.398;10.698;2023-04-01T22:54:04;11.70;53.20
20866;DHT22;10593;48.398;10.698;2023-04-01T22:56:41;11.70;53.30
20866;DHT22;10593;48.398;10.698;2023-04-01T22:59:22;11.70;53.30
20866;DHT22;10593;48.398;10.698;2023-04-01T23:02:15;11.70;53.40
20866;DHT22;10593;48.398;10.698;2023-04-01T23:04:52;11.70;53.60
20866;DHT22;10593;48.398;10.698;2023-04-01T23:10:51;11.70;53.80
20866;DHT22;10593;48.398;10.698;2023-04-01T23:13:29;11.70;53.70
20866;DHT22;10593;48.398;10.698;2023-04-01T23:16:13;11.60;53.70
20866;DHT22;10593;48.398;10.698;2023-04-01T23:21:58;11.60;53.70
20866;DHT22;10593;48.398;10.698;2023-04-01T23:24:40;11.60;54.20
20866;DHT22;10593;48.398;10.698;2023-04-01T23:27:37;11.60;53.70
20866;DHT22;10593;48.398;10.698;2023-04-01T23:33:23;11.60;53.70
20866;DHT22;10593;48.398;10.698;2023-04-01T23:36:12;11.60;53.70
20866;DHT22;10593;48.398;10.698;2023-04-01T23:38:41;11.60;53.70
20866;DHT22;10593;48.398;10.698;2023-04-01T23:41:28;11.60;53.70
20866;DHT22;10593;48.398;10.698;2023-04-01T23:44:05;11.60;53.70
20866;DHT22;10593;48.398;10.698;2023-04-01T23:46:36;11.60;53.70
20866;DHT22;10593;48.398;10.698;2023-04-01T23:49:09;11.60;53.70
20866;DHT22;10593;48.398;10.698;2023-04-01T23:52:02;11.60;53.70
20866;DHT22;10593;48.398;10.698;2023-04-01T23:57:17;11.60;53.70
